sensor_id;sensor_type;location;lat;lon;timestamp;P1;durP1;ratioP1;P2;durP2;ratioP2
11006;SDS011;8186;57.652;11.968;2022-11-22T00:01:37;1.57;;;1.47;;
11006;SDS011;8186;57.652;11.968;2022-11-22T00:04:04;1.90;;;1.80;;
11006;SDS011;8186;57.652;11.968;2022-11-22T00:06:33;2.33;;;1.70;;
11006;SDS011;8186;57.652;11.968;2022-11-22T00:09:00;1.77;;;1.50;;
11006;SDS011;8186;57.652;11.968;2022-11-22T00:11:26;2.20;;;1.77;;
11006;SDS011;8186;57.652;11.968;2022-11-22T00:13:53;1.90;;;1.67;;
11006;SDS011;8186;57.652;11.968;2022-11-22T00:16:20;1.60;;;1.50;;
11006;SDS011;8186;57.652;11.968;2022-11-22T00:18:47;1.80;;;1.43;;
11006;SDS011;8186;57.652;11.968;2022-11-22T00:21:13;1.50;;;1.33;;
11006;SDS011;8186;57.652;11.968;2022-11-22T00:23:42;1.83;;;1.60;;
11006;SDS011;8186;57.652;11.968;2022-11-22T00:26:09;1.83;;;1.40;;
11006;SDS011;8186;57.652;11.968;2022-11-22T00:28:36;1.57;;;1.47;;
11006;SDS011;8186;57.652;11.968;2022-11-22T00:31:04;1.93;;;1.73;;
11006;SDS011;8186;57.652;11.968;2022-11-22T00:33:30;1.60;;;1.50;;
11006;SDS011;8186;57.652;11.968;2022-11-22T00:35:58;1.50;;;1.30;;
11006;SDS011;8186;57.652;11.968;2022-11-22T00:38:25;2.33;;;1.63;;
11006;SDS011;8186;57.652;11.968;2022-11-22T00:40:53;1.70;;;1.60;;
11006;SDS011;8186;57.652;11.968;2022-11-22T00:43:20;2.00;;;1.80;;
11006;SDS011;8186;57.652;11.968;2022-11-22T00:45:47;1.93;;;1.60;;
11006;SDS011;8186;57.652;11.968;2022-11-22T00:48:13;1.77;;;1.60;;
11006;SDS011;8186;57.652;11.968;2022-11-22T00:50:40;2.17;;;1.73;;
11006;SDS011;8186;57.652;11.968;2022-11-22T00:53:07;1.50;;;1.40;;
11006;SDS011;8186;57.652;11.968;2022-11-22T00:55:36;2.60;;;1.80;;
11006;SDS011;8186;57.652;11.968;2022-11-22T00:58:04;2.07;;;1.87;;
11006;SDS011;8186;57.652;11.968;2022-11-22T01:00:31;1.67;;;1.57;;
11006;SDS011;8186;57.652;11.968;2022-11-22T01:02:58;2.30;;;1.70;;
11006;SDS011;8186;57.652;11.968;2022-11-22T01:05:25;1.40;;;1.30;;
11006;SDS011;8186;57.652;11.968;2022-11-22T01:07:52;1.70;;;1.57;;
11006;SDS011;8186;57.652;11.968;2022-11-22T01:10:19;1.47;;;1.20;;
11006;SDS011;8186;57.652;11.968;2022-11-22T01:12:45;1.57;;;1.40;;
11006;SDS011;8186;57.652;11.968;2022-11-22T01:15:14;1.60;;;1.47;;
11006;SDS011;8186;57.652;11.968;2022-11-22T01:17:41;1.60;;;1.50;;
11006;SDS011;8186;57.652;11.968;2022-11-22T01:20:08;1.17;;;1.07;;
11006;SDS011;8186;57.652;11.968;2022-11-22T01:22:35;1.50;;;1.33;;
11006;SDS011;8186;57.652;11.968;2022-11-22T01:25:02;1.60;;;1.50;;
11006;SDS011;8186;57.652;11.968;2022-11-22T01:27:29;1.80;;;1.60;;
11006;SDS011;8186;57.652;11.968;2022-11-22T01:29:56;1.37;;;1.23;;
11006;SDS011;8186;57.652;11.968;2022-11-22T01:32:24;1.40;;;1.30;;
11006;SDS011;8186;57.652;11.968;2022-11-22T01:34:51;1.60;;;1.50;;
11006;SDS011;8186;57.652;11.968;2022-11-22T01:37:18;1.57;;;1.47;;
11006;SDS011;8186;57.652;11.968;2022-11-22T01:39:45;1.60;;;1.50;;
11006;SDS011;8186;57.652;11.968;2022-11-22T01:42:12;1.43;;;1.33;;
11006;SDS011;8186;57.652;11.968;2022-11-22T01:44:39;1.70;;;1.60;;
11006;SDS011;8186;57.652;11.968;2022-11-22T01:47:08;2.07;;;1.80;;
11006;SDS011;8186;57.652;11.968;2022-11-22T01:49:40;1.80;;;1.60;;
11006;SDS011;8186;57.652;11.968;2022-11-22T01:52:09;2.60;;;1.73;;
11006;SDS011;8186;57.652;11.968;2022-11-22T01:54:39;1.87;;;1.53;;
11006;SDS011;8186;57.652;11.968;2022-11-22T01:57:07;1.90;;;1.67;;
11006;SDS011;8186;57.652;11.968;2022-11-22T01:59:36;2.03;;;1.73;;
11006;SDS011;8186;57.652;11.968;2022-11-22T02:02:04;1.70;;;1.60;;
11006;SDS011;8186;57.652;11.968;2022-11-22T02:04:32;1.53;;;1.30;;
11006;SDS011;8186;57.652;11.968;2022-11-22T02:07:02;1.80;;;1.50;;
11006;SDS011;8186;57.652;11.968;2022-11-22T02:09:32;1.50;;;1.40;;
11006;SDS011;8186;57.652;11.968;2022-11-22T02:12:00;1.90;;;1.67;;
11006;SDS011;8186;57.652;11.968;2022-11-22T02:14:28;1.60;;;1.50;;
11006;SDS011;8186;57.652;11.968;2022-11-22T02:16:55;1.50;;;1.40;;
11006;SDS011;8186;57.652;11.968;2022-11-22T02:19:24;1.93;;;1.60;;
11006;SDS011;8186;57.652;11.968;2022-11-22T02:21:54;2.37;;;1.50;;
11006;SDS011;8186;57.652;11.968;2022-11-22T02:24:27;2.40;;;1.73;;
11006;SDS011;8186;57.652;11.968;2022-11-22T02:26:58;1.80;;;1.37;;
11006;SDS011;8186;57.652;11.968;2022-11-22T02:29:25;1.93;;;1.50;;
11006;SDS011;8186;57.652;11.968;2022-11-22T02:31:52;2.77;;;1.50;;
11006;SDS011;8186;57.652;11.968;2022-11-22T02:34:19;1.80;;;1.40;;
11006;SDS011;8186;57.652;11.968;2022-11-22T02:36:46;1.57;;;1.47;;
11006;SDS011;8186;57.652;11.968;2022-11-22T02:39:15;1.90;;;1.70;;
11006;SDS011;8186;57.652;11.968;2022-11-22T02:41:43;2.03;;;1.57;;
11006;SDS011;8186;57.652;11.968;2022-11-22T02:44:11;1.70;;;1.60;;
11006;SDS011;8186;57.652;11.968;2022-11-22T02:46:45;2.03;;;1.60;;
11006;SDS011;8186;57.652;11.968;2022-11-22T02:49:14;2.40;;;1.80;;
11006;SDS011;8186;57.652;11.968;2022-11-22T02:51:42;1.70;;;1.50;;
11006;SDS011;8186;57.652;11.968;2022-11-22T02:54:09;3.00;;;1.80;;
11006;SDS011;8186;57.652;11.968;2022-11-22T02:56:36;1.73;;;1.60;;
11006;SDS011;8186;57.652;11.968;2022-11-22T02:59:02;1.40;;;1.30;;
11006;SDS011;8186;57.652;11.968;2022-11-22T03:01:31;1.60;;;1.50;;
11006;SDS011;8186;57.652;11.968;2022-11-22T03:03:58;2.37;;;1.60;;
11006;SDS011;8186;57.652;11.968;2022-11-22T03:06:24;1.60;;;1.50;;
11006;SDS011;8186;57.652;11.968;2022-11-22T03:08:51;1.80;;;1.47;;
11006;SDS011;8186;57.652;11.968;2022-11-22T03:11:18;1.60;;;1.40;;
11006;SDS011;8186;57.652;11.968;2022-11-22T03:13:45;1.73;;;1.33;;
11006;SDS011;8186;57.652;11.968;2022-11-22T03:16:12;1.83;;;1.53;;
11006;SDS011;8186;57.652;11.968;2022-11-22T03:18:40;1.63;;;1.53;;
11006;SDS011;8186;57.652;11.968;2022-11-22T03:21:07;1.20;;;1.10;;
11006;SDS011;8186;57.652;11.968;2022-11-22T03:23:35;1.70;;;1.40;;
11006;SDS011;8186;57.652;11.968;2022-11-22T03:26:05;1.50;;;1.30;;
11006;SDS011;8186;57.652;11.968;2022-11-22T03:28:33;1.40;;;1.30;;
11006;SDS011;8186;57.652;11.968;2022-11-22T03:31:00;1.70;;;1.53;;
11006;SDS011;8186;57.652;11.968;2022-11-22T03:33:27;1.80;;;1.57;;
11006;SDS011;8186;57.652;11.968;2022-11-22T03:35:55;1.40;;;1.30;;
11006;SDS011;8186;57.652;11.968;2022-11-22T03:38:22;1.30;;;1.20;;
11006;SDS011;8186;57.652;11.968;2022-11-22T03:40:49;1.40;;;1.30;;
11006;SDS011;8186;57.652;11.968;2022-11-22T03:43:16;1.63;;;1.40;;
11006;SDS011;8186;57.652;11.968;2022-11-22T03:45:43;1.53;;;1.30;;
11006;SDS011;8186;57.652;11.968;2022-11-22T03:48:11;1.53;;;1.43;;
11006;SDS011;8186;57.652;11.968;2022-11-22T03:50:38;1.50;;;1.40;;
11006;SDS011;8186;57.652;11.968;2022-11-22T03:53:06;1.97;;;1.60;;
11006;SDS011;8186;57.652;11.968;2022-11-22T03:55:34;1.67;;;1.50;;
11006;SDS011;8186;57.652;11.968;2022-11-22T03:58:01;1.83;;;1.73;;
11006;SDS011;8186;57.652;11.968;2022-11-22T04:00:28;1.37;;;1.27;;
11006;SDS011;8186;57.652;11.968;2022-11-22T04:02:55;1.40;;;1.30;;
11006;SDS011;8186;57.652;11.968;2022-11-22T04:05:22;2.30;;;1.57;;
11006;SDS011;8186;57.652;11.968;2022-11-22T04:07:49;2.00;;;1.70;;
11006;SDS011;8186;57.652;11.968;2022-11-22T04:10:21;1.43;;;1.30;;
11006;SDS011;8186;57.652;11.968;2022-11-22T04:12:48;1.70;;;1.60;;
11006;SDS011;8186;57.652;11.968;2022-11-22T04:15:15;2.47;;;1.43;;
11006;SDS011;8186;57.652;11.968;2022-11-22T04:17:42;1.60;;;1.20;;
11006;SDS011;8186;57.652;11.968;2022-11-22T04:20:11;2.27;;;1.43;;
11006;SDS011;8186;57.652;11.968;2022-11-22T04:22:57;2.73;;;1.50;;
11006;SDS011;8186;57.652;11.968;2022-11-22T04:25:27;2.20;;;1.70;;
11006;SDS011;8186;57.652;11.968;2022-11-22T04:27:54;1.93;;;1.33;;
11006;SDS011;8186;57.652;11.968;2022-11-22T04:30:22;2.30;;;1.50;;
11006;SDS011;8186;57.652;11.968;2022-11-22T04:33:12;1.77;;;1.60;;
11006;SDS011;8186;57.652;11.968;2022-11-22T04:35:39;1.70;;;1.60;;
11006;SDS011;8186;57.652;11.968;2022-11-22T04:38:06;2.03;;;1.83;;
11006;SDS011;8186;57.652;11.968;2022-11-22T04:40:34;1.53;;;1.43;;
11006;SDS011;8186;57.652;11.968;2022-11-22T04:43:01;1.60;;;1.50;;
11006;SDS011;8186;57.652;11.968;2022-11-22T04:45:46;3.33;;;1.70;;
11006;SDS011;8186;57.652;11.968;2022-11-22T04:48:13;2.80;;;1.70;;
11006;SDS011;8186;57.652;11.968;2022-11-22T04:50:40;2.93;;;1.90;;
11006;SDS011;8186;57.652;11.968;2022-11-22T04:53:25;1.63;;;1.50;;
11006;SDS011;8186;57.652;11.968;2022-11-22T04:55:53;1.90;;;1.60;;
11006;SDS011;8186;57.652;11.968;2022-11-22T04:58:20;1.70;;;1.60;;
11006;SDS011;8186;57.652;11.968;2022-11-22T05:00:48;2.40;;;1.80;;
11006;SDS011;8186;57.652;11.968;2022-11-22T05:03:15;1.60;;;1.50;;
11006;SDS011;8186;57.652;11.968;2022-11-22T05:05:42;1.97;;;1.60;;
11006;SDS011;8186;57.652;11.968;2022-11-22T05:08:09;1.90;;;1.47;;
11006;SDS011;8186;57.652;11.968;2022-11-22T05:10:37;1.83;;;1.73;;
11006;SDS011;8186;57.652;11.968;2022-11-22T05:13:24;1.80;;;1.60;;
11006;SDS011;8186;57.652;11.968;2022-11-22T05:15:52;1.83;;;1.53;;
11006;SDS011;8186;57.652;11.968;2022-11-22T05:18:20;2.60;;;1.80;;
11006;SDS011;8186;57.652;11.968;2022-11-22T05:20:47;1.97;;;1.60;;
11006;SDS011;8186;57.652;11.968;2022-11-22T05:23:14;2.20;;;2.00;;
11006;SDS011;8186;57.652;11.968;2022-11-22T05:25:58;2.07;;;1.87;;
11006;SDS011;8186;57.652;11.968;2022-11-22T05:28:27;2.40;;;2.00;;
11006;SDS011;8186;57.652;11.968;2022-11-22T05:30:55;2.27;;;2.00;;
11006;SDS011;8186;57.652;11.968;2022-11-22T05:33:22;3.27;;;1.63;;
11006;SDS011;8186;57.652;11.968;2022-11-22T05:35:49;2.00;;;1.80;;
11006;SDS011;8186;57.652;11.968;2022-11-22T05:38:16;4.03;;;1.83;;
11006;SDS011;8186;57.652;11.968;2022-11-22T05:40:43;3.27;;;2.17;;
11006;SDS011;8186;57.652;11.968;2022-11-22T05:43:10;2.43;;;2.23;;
11006;SDS011;8186;57.652;11.968;2022-11-22T05:45:38;2.50;;;2.30;;
11006;SDS011;8186;57.652;11.968;2022-11-22T05:48:05;3.57;;;2.50;;
11006;SDS011;8186;57.652;11.968;2022-11-22T05:50:31;2.33;;;2.10;;
11006;SDS011;8186;57.652;11.968;2022-11-22T05:52:59;2.63;;;2.33;;
11006;SDS011;8186;57.652;11.968;2022-11-22T05:55:27;3.50;;;2.60;;
11006;SDS011;8186;57.652;11.968;2022-11-22T05:57:54;3.37;;;2.70;;
11006;SDS011;8186;57.652;11.968;2022-11-22T06:00:21;2.53;;;2.33;;
11006;SDS011;8186;57.652;11.968;2022-11-22T06:02:49;2.73;;;2.33;;
11006;SDS011;8186;57.652;11.968;2022-11-22T06:05:16;2.53;;;2.20;;
11006;SDS011;8186;57.652;11.968;2022-11-22T06:07:43;5.50;;;2.30;;
11006;SDS011;8186;57.652;11.968;2022-11-22T06:10:11;4.43;;;3.10;;
11006;SDS011;8186;57.652;11.968;2022-11-22T06:12:37;4.77;;;3.20;;
11006;SDS011;8186;57.652;11.968;2022-11-22T06:15:05;4.93;;;2.50;;
11006;SDS011;8186;57.652;11.968;2022-11-22T06:17:32;3.83;;;2.90;;
11006;SDS011;8186;57.652;11.968;2022-11-22T06:20:00;3.63;;;3.27;;
11006;SDS011;8186;57.652;11.968;2022-11-22T06:22:28;3.87;;;3.30;;
11006;SDS011;8186;57.652;11.968;2022-11-22T06:24:54;7.13;;;3.60;;
11006;SDS011;8186;57.652;11.968;2022-11-22T06:27:21;5.10;;;3.67;;
11006;SDS011;8186;57.652;11.968;2022-11-22T06:29:48;4.83;;;3.77;;
11006;SDS011;8186;57.652;11.968;2022-11-22T06:32:15;4.53;;;4.03;;
11006;SDS011;8186;57.652;11.968;2022-11-22T06:34:42;3.97;;;3.53;;
11006;SDS011;8186;57.652;11.968;2022-11-22T06:37:10;5.57;;;4.03;;
11006;SDS011;8186;57.652;11.968;2022-11-22T06:39:40;4.87;;;3.63;;
11006;SDS011;8186;57.652;11.968;2022-11-22T06:42:07;5.67;;;3.80;;
11006;SDS011;8186;57.652;11.968;2022-11-22T06:44:33;4.43;;;3.50;;
11006;SDS011;8186;57.652;11.968;2022-11-22T06:47:00;4.57;;;4.03;;
11006;SDS011;8186;57.652;11.968;2022-11-22T06:49:27;5.50;;;4.70;;
11006;SDS011;8186;57.652;11.968;2022-11-22T06:51:54;4.20;;;3.80;;
11006;SDS011;8186;57.652;11.968;2022-11-22T06:54:23;7.53;;;4.27;;
11006;SDS011;8186;57.652;11.968;2022-11-22T06:56:49;4.57;;;4.00;;
11006;SDS011;8186;57.652;11.968;2022-11-22T06:59:16;4.90;;;4.20;;
11006;SDS011;8186;57.652;11.968;2022-11-22T07:01:43;4.70;;;4.13;;
11006;SDS011;8186;57.652;11.968;2022-11-22T07:04:10;5.70;;;4.70;;
11006;SDS011;8186;57.652;11.968;2022-11-22T07:06:37;6.07;;;4.87;;
11006;SDS011;8186;57.652;11.968;2022-11-22T07:09:05;6.90;;;4.33;;
11006;SDS011;8186;57.652;11.968;2022-11-22T07:11:34;4.53;;;4.03;;
11006;SDS011;8186;57.652;11.968;2022-11-22T07:14:02;4.90;;;4.13;;
11006;SDS011;8186;57.652;11.968;2022-11-22T07:16:29;6.73;;;5.23;;
11006;SDS011;8186;57.652;11.968;2022-11-22T07:18:57;6.70;;;5.17;;
11006;SDS011;8186;57.652;11.968;2022-11-22T07:21:24;6.00;;;5.13;;
11006;SDS011;8186;57.652;11.968;2022-11-22T07:23:52;7.40;;;6.63;;
11006;SDS011;8186;57.652;11.968;2022-11-22T07:26:20;6.70;;;5.70;;
11006;SDS011;8186;57.652;11.968;2022-11-22T07:28:49;4.87;;;4.30;;
11006;SDS011;8186;57.652;11.968;2022-11-22T07:31:16;7.90;;;5.00;;
11006;SDS011;8186;57.652;11.968;2022-11-22T07:33:44;6.90;;;4.70;;
11006;SDS011;8186;57.652;11.968;2022-11-22T07:36:12;6.23;;;4.53;;
11006;SDS011;8186;57.652;11.968;2022-11-22T07:38:40;4.90;;;4.40;;
11006;SDS011;8186;57.652;11.968;2022-11-22T07:41:07;5.33;;;4.53;;
11006;SDS011;8186;57.652;11.968;2022-11-22T07:43:34;5.03;;;4.13;;
11006;SDS011;8186;57.652;11.968;2022-11-22T07:46:03;6.33;;;4.30;;
11006;SDS011;8186;57.652;11.968;2022-11-22T07:48:31;5.03;;;4.53;;
11006;SDS011;8186;57.652;11.968;2022-11-22T07:51:01;5.33;;;4.63;;
11006;SDS011;8186;57.652;11.968;2022-11-22T07:53:29;4.80;;;4.30;;
11006;SDS011;8186;57.652;11.968;2022-11-22T07:55:58;4.83;;;4.17;;
11006;SDS011;8186;57.652;11.968;2022-11-22T07:58:26;6.37;;;4.63;;
11006;SDS011;8186;57.652;11.968;2022-11-22T08:00:53;4.90;;;4.43;;
11006;SDS011;8186;57.652;11.968;2022-11-22T08:03:21;5.50;;;4.53;;
11006;SDS011;8186;57.652;11.968;2022-11-22T08:05:48;5.17;;;4.10;;
11006;SDS011;8186;57.652;11.968;2022-11-22T08:08:15;5.40;;;3.60;;
11006;SDS011;8186;57.652;11.968;2022-11-22T08:10:42;4.87;;;4.17;;
11006;SDS011;8186;57.652;11.968;2022-11-22T08:13:10;4.20;;;3.60;;
11006;SDS011;8186;57.652;11.968;2022-11-22T08:15:36;4.73;;;3.73;;
11006;SDS011;8186;57.652;11.968;2022-11-22T08:18:03;6.33;;;3.73;;
11006;SDS011;8186;57.652;11.968;2022-11-22T08:20:32;4.90;;;3.60;;
11006;SDS011;8186;57.652;11.968;2022-11-22T08:22:58;5.03;;;4.10;;
11006;SDS011;8186;57.652;11.968;2022-11-22T08:25:25;4.97;;;3.37;;
11006;SDS011;8186;57.652;11.968;2022-11-22T08:27:52;6.53;;;4.27;;
11006;SDS011;8186;57.652;11.968;2022-11-22T08:30:19;7.83;;;3.60;;
11006;SDS011;8186;57.652;11.968;2022-11-22T08:32:46;7.33;;;3.60;;
11006;SDS011;8186;57.652;11.968;2022-11-22T08:35:13;5.20;;;3.73;;
11006;SDS011;8186;57.652;11.968;2022-11-22T08:37:41;4.93;;;3.30;;
11006;SDS011;8186;57.652;11.968;2022-11-22T08:40:08;6.47;;;3.53;;
11006;SDS011;8186;57.652;11.968;2022-11-22T08:42:35;4.60;;;4.13;;
11006;SDS011;8186;57.652;11.968;2022-11-22T08:45:03;4.43;;;4.03;;
11006;SDS011;8186;57.652;11.968;2022-11-22T08:47:30;4.60;;;3.43;;
11006;SDS011;8186;57.652;11.968;2022-11-22T08:49:57;4.83;;;3.87;;
11006;SDS011;8186;57.652;11.968;2022-11-22T08:52:24;12.37;;;4.17;;
11006;SDS011;8186;57.652;11.968;2022-11-22T08:54:52;8.07;;;4.13;;
11006;SDS011;8186;57.652;11.968;2022-11-22T08:57:19;5.00;;;3.73;;
11006;SDS011;8186;57.652;11.968;2022-11-22T08:59:47;4.03;;;3.30;;
11006;SDS011;8186;57.652;11.968;2022-11-22T09:02:14;5.23;;;4.20;;
11006;SDS011;8186;57.652;11.968;2022-11-22T09:04:40;5.43;;;3.80;;
11006;SDS011;8186;57.652;11.968;2022-11-22T09:07:07;5.57;;;3.70;;
11006;SDS011;8186;57.652;11.968;2022-11-22T09:09:34;5.83;;;4.27;;
11006;SDS011;8186;57.652;11.968;2022-11-22T09:12:02;5.57;;;4.33;;
11006;SDS011;8186;57.652;11.968;2022-11-22T09:14:30;4.30;;;3.47;;
11006;SDS011;8186;57.652;11.968;2022-11-22T09:16:56;5.43;;;3.70;;
11006;SDS011;8186;57.652;11.968;2022-11-22T09:19:23;4.40;;;3.73;;
11006;SDS011;8186;57.652;11.968;2022-11-22T09:21:50;5.87;;;4.40;;
11006;SDS011;8186;57.652;11.968;2022-11-22T09:24:17;7.10;;;4.20;;
11006;SDS011;8186;57.652;11.968;2022-11-22T09:26:44;4.53;;;3.37;;
11006;SDS011;8186;57.652;11.968;2022-11-22T09:29:12;5.50;;;4.00;;
11006;SDS011;8186;57.652;11.968;2022-11-22T09:31:40;4.43;;;3.90;;
11006;SDS011;8186;57.652;11.968;2022-11-22T09:34:06;4.73;;;3.93;;
11006;SDS011;8186;57.652;11.968;2022-11-22T09:36:33;4.13;;;3.70;;
11006;SDS011;8186;57.652;11.968;2022-11-22T09:39:00;4.37;;;3.97;;
11006;SDS011;8186;57.652;11.968;2022-11-22T09:44:33;5.17;;;3.93;;
11006;SDS011;8186;57.652;11.968;2022-11-22T09:47:09;4.00;;;3.60;;
11006;SDS011;8186;57.652;11.968;2022-11-22T09:49:46;4.83;;;3.50;;
11006;SDS011;8186;57.652;11.968;2022-11-22T09:52:18;5.73;;;3.70;;
11006;SDS011;8186;57.652;11.968;2022-11-22T09:54:49;4.90;;;4.00;;
11006;SDS011;8186;57.652;11.968;2022-11-22T09:57:20;5.17;;;3.70;;
11006;SDS011;8186;57.652;11.968;2022-11-22T09:59:52;4.27;;;3.30;;
11006;SDS011;8186;57.652;11.968;2022-11-22T10:02:24;5.27;;;3.83;;
11006;SDS011;8186;57.652;11.968;2022-11-22T10:04:53;4.53;;;4.10;;
11006;SDS011;8186;57.652;11.968;2022-11-22T10:07:22;6.80;;;3.87;;
11006;SDS011;8186;57.652;11.968;2022-11-22T10:09:53;5.13;;;3.67;;
11006;SDS011;8186;57.652;11.968;2022-11-22T10:12:24;4.17;;;3.77;;
11006;SDS011;8186;57.652;11.968;2022-11-22T10:14:57;5.63;;;4.10;;
11006;SDS011;8186;57.652;11.968;2022-11-22T10:17:31;4.43;;;3.80;;
11006;SDS011;8186;57.652;11.968;2022-11-22T10:20:06;5.17;;;3.77;;
11006;SDS011;8186;57.652;11.968;2022-11-22T10:22:39;4.97;;;3.70;;
11006;SDS011;8186;57.652;11.968;2022-11-22T10:25:11;4.60;;;4.10;;
11006;SDS011;8186;57.652;11.968;2022-11-22T10:27:40;5.43;;;3.67;;
11006;SDS011;8186;57.652;11.968;2022-11-22T10:30:12;4.33;;;3.63;;
11006;SDS011;8186;57.652;11.968;2022-11-22T10:32:43;7.30;;;3.87;;
11006;SDS011;8186;57.652;11.968;2022-11-22T10:35:22;5.33;;;4.10;;
11006;SDS011;8186;57.652;11.968;2022-11-22T10:37:55;5.83;;;4.13;;
11006;SDS011;8186;57.652;11.968;2022-11-22T10:40:29;3.43;;;3.13;;
11006;SDS011;8186;57.652;11.968;2022-11-22T10:43:06;5.17;;;3.90;;
11006;SDS011;8186;57.652;11.968;2022-11-22T10:45:48;3.63;;;3.20;;
11006;SDS011;8186;57.652;11.968;2022-11-22T10:48:21;5.47;;;3.40;;
11006;SDS011;8186;57.652;11.968;2022-11-22T10:50:55;4.00;;;3.60;;
11006;SDS011;8186;57.652;11.968;2022-11-22T10:53:30;4.97;;;3.50;;
11006;SDS011;8186;57.652;11.968;2022-11-22T10:56:05;6.17;;;3.30;;
11006;SDS011;8186;57.652;11.968;2022-11-22T10:58:38;4.00;;;3.33;;
11006;SDS011;8186;57.652;11.968;2022-11-22T11:01:12;3.37;;;3.03;;
11006;SDS011;8186;57.652;11.968;2022-11-22T11:03:43;4.17;;;3.47;;
11006;SDS011;8186;57.652;11.968;2022-11-22T11:06:12;4.60;;;3.17;;
11006;SDS011;8186;57.652;11.968;2022-11-22T11:08:43;4.27;;;3.70;;
11006;SDS011;8186;57.652;11.968;2022-11-22T11:11:11;4.87;;;3.40;;
11006;SDS011;8186;57.652;11.968;2022-11-22T11:13:40;3.40;;;3.10;;
11006;SDS011;8186;57.652;11.968;2022-11-22T11:16:11;3.60;;;3.30;;
11006;SDS011;8186;57.652;11.968;2022-11-22T11:18:42;5.60;;;3.37;;
11006;SDS011;8186;57.652;11.968;2022-11-22T11:21:12;3.80;;;3.50;;
11006;SDS011;8186;57.652;11.968;2022-11-22T11:23:39;4.57;;;4.17;;
11006;SDS011;8186;57.652;11.968;2022-11-22T11:28:49;3.83;;;3.43;;
11006;SDS011;8186;57.652;11.968;2022-11-22T11:31:17;3.97;;;3.00;;
11006;SDS011;8186;57.652;11.968;2022-11-22T11:33:45;4.00;;;3.50;;
11006;SDS011;8186;57.652;11.968;2022-11-22T11:36:13;6.23;;;3.80;;
11006;SDS011;8186;57.652;11.968;2022-11-22T11:38:49;4.77;;;3.80;;
11006;SDS011;8186;57.652;11.968;2022-11-22T11:41:27;4.10;;;3.70;;
11006;SDS011;8186;57.652;11.968;2022-11-22T11:43:55;3.47;;;3.17;;
11006;SDS011;8186;57.652;11.968;2022-11-22T11:46:25;6.83;;;3.40;;
11006;SDS011;8186;57.652;11.968;2022-11-22T11:48:53;4.27;;;3.23;;
11006;SDS011;8186;57.652;11.968;2022-11-22T11:51:21;6.93;;;3.20;;
11006;SDS011;8186;57.652;11.968;2022-11-22T11:53:52;4.13;;;3.67;;
11006;SDS011;8186;57.652;11.968;2022-11-22T11:56:29;4.40;;;3.33;;
11006;SDS011;8186;57.652;11.968;2022-11-22T11:59:10;5.73;;;3.17;;
11006;SDS011;8186;57.652;11.968;2022-11-22T12:01:43;3.67;;;2.80;;
11006;SDS011;8186;57.652;11.968;2022-11-22T12:04:15;3.40;;;3.10;;
11006;SDS011;8186;57.652;11.968;2022-11-22T12:06:51;4.27;;;3.30;;
11006;SDS011;8186;57.652;11.968;2022-11-22T12:09:25;3.30;;;3.00;;
11006;SDS011;8186;57.652;11.968;2022-11-22T12:11:54;8.83;;;3.67;;
11006;SDS011;8186;57.652;11.968;2022-11-22T12:14:24;3.60;;;2.90;;
11006;SDS011;8186;57.652;11.968;2022-11-22T12:16:53;3.13;;;2.83;;
11006;SDS011;8186;57.652;11.968;2022-11-22T12:19:26;3.67;;;3.00;;
11006;SDS011;8186;57.652;11.968;2022-11-22T12:21:59;3.43;;;2.93;;
11006;SDS011;8186;57.652;11.968;2022-11-22T12:24:27;5.00;;;3.10;;
11006;SDS011;8186;57.652;11.968;2022-11-22T12:26:57;2.90;;;2.60;;
11006;SDS011;8186;57.652;11.968;2022-11-22T12:29:24;3.73;;;2.83;;
11006;SDS011;8186;57.652;11.968;2022-11-22T12:31:53;4.73;;;3.20;;
11006;SDS011;8186;57.652;11.968;2022-11-22T12:34:23;4.70;;;3.17;;
11006;SDS011;8186;57.652;11.968;2022-11-22T12:36:54;3.90;;;3.03;;
11006;SDS011;8186;57.652;11.968;2022-11-22T12:39:24;3.43;;;3.13;;
11006;SDS011;8186;57.652;11.968;2022-11-22T12:41:53;3.27;;;2.97;;
11006;SDS011;8186;57.652;11.968;2022-11-22T12:44:32;3.33;;;2.73;;
11006;SDS011;8186;57.652;11.968;2022-11-22T12:47:03;3.30;;;2.70;;
11006;SDS011;8186;57.652;11.968;2022-11-22T12:49:34;3.53;;;2.63;;
11006;SDS011;8186;57.652;11.968;2022-11-22T12:52:06;4.50;;;2.77;;
11006;SDS011;8186;57.652;11.968;2022-11-22T12:54:39;2.97;;;2.67;;
11006;SDS011;8186;57.652;11.968;2022-11-22T12:57:10;3.33;;;3.03;;
11006;SDS011;8186;57.652;11.968;2022-11-22T12:59:41;3.60;;;2.80;;
11006;SDS011;8186;57.652;11.968;2022-11-22T13:02:14;2.90;;;2.60;;
11006;SDS011;8186;57.652;11.968;2022-11-22T13:04:46;2.70;;;2.50;;
11006;SDS011;8186;57.652;11.968;2022-11-22T13:07:18;3.17;;;2.73;;
11006;SDS011;8186;57.652;11.968;2022-11-22T13:09:50;4.57;;;3.13;;
11006;SDS011;8186;57.652;11.968;2022-11-22T13:12:22;2.87;;;2.53;;
11006;SDS011;8186;57.652;11.968;2022-11-22T13:14:52;3.40;;;2.80;;
11006;SDS011;8186;57.652;11.968;2022-11-22T13:17:22;3.20;;;2.90;;
11006;SDS011;8186;57.652;11.968;2022-11-22T13:19:51;8.27;;;3.17;;
11006;SDS011;8186;57.652;11.968;2022-11-22T13:22:23;3.87;;;3.17;;
11006;SDS011;8186;57.652;11.968;2022-11-22T13:24:58;3.50;;;3.10;;
11006;SDS011;8186;57.652;11.968;2022-11-22T13:27:34;5.47;;;3.80;;
11006;SDS011;8186;57.652;11.968;2022-11-22T13:30:02;3.87;;;3.47;;
11006;SDS011;8186;57.652;11.968;2022-11-22T13:32:31;4.23;;;3.10;;
11006;SDS011;8186;57.652;11.968;2022-11-22T13:35:00;6.27;;;3.13;;
11006;SDS011;8186;57.652;11.968;2022-11-22T13:37:30;7.93;;;3.70;;
11006;SDS011;8186;57.652;11.968;2022-11-22T13:40:06;5.93;;;3.73;;
11006;SDS011;8186;57.652;11.968;2022-11-22T13:42:34;3.83;;;3.43;;
11006;SDS011;8186;57.652;11.968;2022-11-22T13:45:06;4.90;;;3.60;;
11006;SDS011;8186;57.652;11.968;2022-11-22T13:47:40;4.27;;;3.53;;
11006;SDS011;8186;57.652;11.968;2022-11-22T13:53:25;5.23;;;4.03;;
11006;SDS011;8186;57.652;11.968;2022-11-22T13:55:54;4.87;;;3.47;;
11006;SDS011;8186;57.652;11.968;2022-11-22T14:04:30;4.77;;;3.50;;
11006;SDS011;8186;57.652;11.968;2022-11-22T14:07:01;4.83;;;4.03;;
11006;SDS011;8186;57.652;11.968;2022-11-22T14:09:35;6.37;;;4.17;;
11006;SDS011;8186;57.652;11.968;2022-11-22T14:15:23;5.40;;;4.17;;
11006;SDS011;8186;57.652;11.968;2022-11-22T14:18:01;4.30;;;3.90;;
11006;SDS011;8186;57.652;11.968;2022-11-22T14:20:39;5.83;;;4.50;;
11006;SDS011;8186;57.652;11.968;2022-11-22T14:23:12;5.20;;;4.33;;
11006;SDS011;8186;57.652;11.968;2022-11-22T14:25:49;5.67;;;4.27;;
11006;SDS011;8186;57.652;11.968;2022-11-22T14:28:30;5.57;;;4.60;;
11006;SDS011;8186;57.652;11.968;2022-11-22T14:31:10;6.60;;;4.87;;
11006;SDS011;8186;57.652;11.968;2022-11-22T14:36:41;8.23;;;5.07;;
11006;SDS011;8186;57.652;11.968;2022-11-22T14:45:20;7.63;;;5.73;;
11006;SDS011;8186;57.652;11.968;2022-11-22T14:47:58;6.63;;;4.93;;
11006;SDS011;8186;57.652;11.968;2022-11-22T14:50:27;5.73;;;4.80;;
11006;SDS011;8186;57.652;11.968;2022-11-22T14:52:58;6.73;;;5.13;;
11006;SDS011;8186;57.652;11.968;2022-11-22T14:55:30;6.63;;;5.30;;
11006;SDS011;8186;57.652;11.968;2022-11-22T14:57:58;6.80;;;5.53;;
11006;SDS011;8186;57.652;11.968;2022-11-22T15:00:27;9.77;;;5.80;;
11006;SDS011;8186;57.652;11.968;2022-11-22T15:03:09;7.47;;;5.60;;
11006;SDS011;8186;57.652;11.968;2022-11-22T15:05:59;8.77;;;5.43;;
11006;SDS011;8186;57.652;11.968;2022-11-22T15:08:33;7.70;;;5.67;;
11006;SDS011;8186;57.652;11.968;2022-11-22T15:17:31;9.63;;;6.00;;
11006;SDS011;8186;57.652;11.968;2022-11-22T15:20:01;7.53;;;5.83;;
11006;SDS011;8186;57.652;11.968;2022-11-22T15:22:28;10.37;;;6.60;;
11006;SDS011;8186;57.652;11.968;2022-11-22T15:24:57;7.87;;;6.23;;
11006;SDS011;8186;57.652;11.968;2022-11-22T15:27:25;8.07;;;6.43;;
11006;SDS011;8186;57.652;11.968;2022-11-22T15:30:07;7.47;;;5.90;;
11006;SDS011;8186;57.652;11.968;2022-11-22T15:32:38;9.80;;;5.87;;
11006;SDS011;8186;57.652;11.968;2022-11-22T15:35:11;8.23;;;6.03;;